Terminal Aerodrome Forecast
Issued by NWS Brownsville, TX

Home | Current Version | Previous Version | Text Only | Print | Product List | Glossary On
Versions: 1 2 3 4 5 6 7 8 9 10 11 12 13 14 15
000
FTUS44 KBRO 161139
TAFMFE
TAF
KMFE 161139Z 1612/1712 29005KT P6SM -DZRA BKN015 OVC025
     FM161600 28010KT P6SM -DZRA OVC015
      TEMPO 1617/1621 5SM BR OVC006
     FM162300 27005KT P6SM OVC025
     FM170900 34005KT P6SM OVC010=

USA.gov is the U.S. government's official web portal to all federal, state and local government web resources and services.